createdAt,value
2017-06-02T00:00:25.304Z,9.16
2017-06-02T00:02:52.598Z,8.98
2017-06-02T00:05:19.898Z,9.08
2017-06-02T00:07:47.491Z,8.92
2017-06-02T00:10:14.814Z,9.92
2017-06-02T00:12:42.153Z,8.82
2017-06-02T00:15:09.501Z,9.24
2017-06-02T00:17:36.777Z,10.30
2017-06-02T00:20:04.041Z,9.88
2017-06-02T00:22:31.009Z,10.62
2017-06-02T00:24:58.302Z,10.20
2017-06-02T00:27:25.585Z,11.68
2017-06-02T00:29:53.038Z,10.68
2017-06-02T00:32:20.319Z,10.90
2017-06-02T00:34:47.660Z,11.42
2017-06-02T00:37:14.947Z,10.02
2017-06-02T00:39:42.277Z,10.38
2017-06-02T00:42:09.604Z,10.94
2017-06-02T00:44:36.876Z,10.24
2017-06-02T00:47:04.620Z,11.38
2017-06-02T00:49:31.962Z,11.48
2017-06-02T00:51:59.277Z,11.32
2017-06-02T00:54:26.545Z,11.06
2017-06-02T00:56:53.845Z,12.06
2017-06-02T00:59:21.112Z,11.46
2017-06-02T01:01:48.448Z,12.30
2017-06-02T01:04:15.765Z,12.08
2017-06-02T01:06:43.078Z,11.92
2017-06-02T01:09:10.680Z,12.24
2017-06-02T01:11:37.999Z,12.62
2017-06-02T01:14:05.348Z,11.78
2017-06-02T01:16:32.673Z,12.56
2017-06-02T01:18:59.960Z,12.00
2017-06-02T01:21:27.278Z,11.76
2017-06-02T01:23:54.678Z,11.58
2017-06-02T01:26:21.224Z,11.30
2017-06-02T01:28:48.561Z,10.64
2017-06-02T01:31:15.880Z,12.26
2017-06-02T01:33:43.248Z,11.42
2017-06-02T01:36:10.544Z,11.18
2017-06-02T01:38:37.756Z,11.60
2017-06-02T01:41:05.125Z,11.62
2017-06-02T01:43:32.512Z,11.40
2017-06-02T01:45:59.917Z,11.38
2017-06-02T01:48:27.133Z,11.60
2017-06-02T01:50:54.381Z,10.72
2017-06-02T01:53:21.705Z,11.90
2017-06-02T01:55:49.285Z,12.16
2017-06-02T01:58:16.588Z,11.20
2017-06-02T02:00:43.896Z,12.88
2017-06-02T02:03:11.204Z,12.62
2017-06-02T02:05:38.606Z,11.44
2017-06-02T02:08:05.942Z,11.88
2017-06-02T02:10:33.245Z,12.92
2017-06-02T02:13:00.536Z,12.40
2017-06-02T02:15:27.869Z,12.14
2017-06-02T02:17:55.117Z,12.84
2017-06-02T02:20:22.412Z,12.10
2017-06-02T02:22:49.616Z,12.84
2017-06-02T02:25:16.950Z,11.42
2017-06-02T02:27:44.305Z,11.26
2017-06-02T02:30:11.628Z,11.82
2017-06-02T02:32:38.893Z,12.00
2017-06-02T02:35:06.821Z,11.44
2017-06-02T02:37:34.255Z,12.54
2017-06-02T02:40:01.557Z,12.00
2017-06-02T02:42:28.872Z,12.48
2017-06-02T02:44:56.248Z,13.26
2017-06-02T02:47:23.590Z,12.20
2017-06-02T02:49:50.876Z,12.50
2017-06-02T02:52:18.188Z,12.74
2017-06-02T02:54:45.489Z,12.68
2017-06-02T02:57:12.795Z,13.00
2017-06-02T02:59:40.151Z,11.74
2017-06-02T03:02:07.544Z,11.36
2017-06-02T03:04:34.858Z,11.52
2017-06-02T03:07:02.184Z,12.74
2017-06-02T03:09:29.529Z,11.84
2017-06-02T03:11:56.865Z,10.32
2017-06-02T03:14:24.207Z,11.32
2017-06-02T03:16:51.947Z,11.88
2017-06-02T03:19:19.253Z,10.70
2017-06-02T03:21:46.577Z,11.32
2017-06-02T03:24:13.893Z,11.24
2017-06-02T03:26:41.318Z,10.38
2017-06-02T03:29:08.644Z,10.48
2017-06-02T03:31:35.964Z,10.96
2017-06-02T03:34:03.248Z,10.20
2017-06-02T03:36:30.552Z,11.24
2017-06-02T03:38:57.793Z,11.00
2017-06-02T03:41:25.093Z,10.88
2017-06-02T03:43:52.400Z,10.46
2017-06-02T03:46:19.704Z,10.54
2017-06-02T03:48:46.882Z,11.40
2017-06-02T03:51:14.218Z,11.66
2017-06-02T03:53:41.577Z,10.82
2017-06-02T03:56:08.756Z,10.94
2017-06-02T03:58:36.086Z,10.98
2017-06-02T04:01:03.772Z,10.46
2017-06-02T04:03:31.156Z,10.76
2017-06-02T04:05:58.473Z,10.48
2017-06-02T04:08:25.897Z,10.06
2017-06-02T04:10:53.225Z,10.60
2017-06-02T04:13:20.531Z,11.02
2017-06-02T04:15:47.739Z,11.40
2017-06-02T04:18:15.088Z,11.34
2017-06-02T04:20:42.381Z,11.30
2017-06-02T04:23:09.819Z,11.32
2017-06-02T04:25:37.198Z,11.46
2017-06-02T04:28:04.492Z,12.26
2017-06-02T04:30:31.799Z,11.30
2017-06-02T04:32:59.272Z,12.36
2017-06-02T04:35:26.589Z,12.90
2017-06-02T04:37:53.949Z,13.06
2017-06-02T04:40:21.256Z,12.62
2017-06-02T04:42:48.465Z,12.38
2017-06-02T04:45:15.660Z,13.78
2017-06-02T04:47:42.996Z,11.46
2017-06-02T04:50:10.212Z,12.18
2017-06-02T04:52:37.677Z,10.64
2017-06-02T04:55:04.906Z,11.96
2017-06-02T04:57:32.244Z,10.74
2017-06-02T04:59:59.633Z,11.32
2017-06-02T05:02:26.959Z,9.70
2017-06-02T05:04:54.244Z,10.60
2017-06-02T05:07:21.552Z,9.32
2017-06-02T05:09:49.207Z,10.58
2017-06-02T05:12:16.494Z,10.62
2017-06-02T05:14:43.795Z,9.60
2017-06-02T05:17:11.008Z,10.16
2017-06-02T05:19:38.377Z,10.18
2017-06-02T05:22:05.676Z,9.10
2017-06-02T05:24:33.553Z,9.96
2017-06-02T05:27:01.333Z,8.98
2017-06-02T05:29:28.696Z,8.14
2017-06-02T05:31:56.431Z,8.88
2017-06-02T05:34:38.688Z,9.20
2017-06-02T05:37:05.968Z,8.74
2017-06-02T05:39:40.220Z,9.00
2017-06-02T05:42:06.656Z,8.68
2017-06-02T05:44:33.944Z,9.84
2017-06-02T05:47:01.264Z,9.82
2017-06-02T05:49:28.612Z,8.06
2017-06-02T05:51:55.961Z,7.90
2017-06-02T05:54:23.265Z,8.94
2017-06-02T05:56:50.735Z,8.86
2017-06-02T05:59:18.024Z,8.60
2017-06-02T06:01:45.392Z,8.62
2017-06-02T06:04:12.888Z,9.18
2017-06-02T06:06:40.243Z,8.60
2017-06-02T06:09:07.532Z,10.66
2017-06-02T06:11:35.138Z,8.74
2017-06-02T06:14:02.450Z,8.68
2017-06-02T06:16:29.617Z,9.10
2017-06-02T06:18:58.013Z,8.98
2017-06-02T06:21:25.600Z,8.94
2017-06-02T06:23:52.941Z,8.00
2017-06-02T06:26:20.093Z,8.08
2017-06-02T06:28:47.436Z,7.78
2017-06-02T06:31:14.720Z,8.68
2017-06-02T06:33:42.454Z,8.90
2017-06-02T06:36:09.906Z,8.66
2017-06-02T06:38:37.280Z,8.30
2017-06-02T06:41:04.677Z,7.98
2017-06-02T06:43:32.290Z,7.14
2017-06-02T06:45:59.545Z,7.26
2017-06-02T06:48:26.776Z,7.02
2017-06-02T06:51:09.078Z,6.54
2017-06-02T06:53:36.393Z,6.78
2017-06-02T06:56:03.821Z,7.64
2017-06-02T06:58:31.152Z,6.28
2017-06-02T07:00:58.496Z,6.32
2017-06-02T07:03:25.886Z,6.38
2017-06-02T07:05:53.093Z,5.90
2017-06-02T07:08:20.493Z,5.54
2017-06-02T07:10:47.800Z,6.52
2017-06-02T07:13:15.136Z,6.08
2017-06-02T07:15:43.136Z,6.32
2017-06-02T07:18:10.488Z,5.48
2017-06-02T07:20:37.813Z,5.32
2017-06-02T07:23:05.166Z,5.12
2017-06-02T07:25:34.969Z,4.84
2017-06-02T07:28:02.281Z,4.80
2017-06-02T07:30:29.617Z,4.92
2017-06-02T07:32:56.950Z,4.72
2017-06-02T07:35:24.279Z,4.90
2017-06-02T07:37:51.569Z,4.66
2017-06-02T07:40:19.444Z,3.94
2017-06-02T07:42:46.779Z,3.50
2017-06-02T07:45:14.087Z,3.84
2017-06-02T07:47:41.505Z,3.42
2017-06-02T07:50:08.834Z,3.70
2017-06-02T07:52:42.756Z,3.26
2017-06-02T07:55:10.088Z,3.80
2017-06-02T07:57:37.415Z,2.82
2017-06-02T08:00:04.713Z,3.70
2017-06-02T08:02:31.900Z,3.38
2017-06-02T08:04:59.236Z,3.16
2017-06-02T08:07:27.932Z,3.66
2017-06-02T08:09:55.233Z,3.16
2017-06-02T08:12:22.578Z,2.86
2017-06-02T08:14:49.876Z,2.84
2017-06-02T08:17:17.188Z,3.74
2017-06-02T08:19:44.473Z,3.48
2017-06-02T08:22:11.787Z,3.40
2017-06-02T08:24:39.077Z,2.84
2017-06-02T08:27:06.391Z,2.90
2017-06-02T08:29:33.705Z,3.12
2017-06-02T08:32:01.050Z,3.18
2017-06-02T08:34:28.365Z,3.32
2017-06-02T08:36:55.675Z,3.60
2017-06-02T08:39:23.008Z,3.26
2017-06-02T08:41:50.313Z,3.76
2017-06-02T08:44:17.550Z,3.70
2017-06-02T08:46:44.865Z,3.58
2017-06-02T08:49:16.970Z,3.70
2017-06-02T08:51:44.257Z,3.38
2017-06-02T08:54:11.592Z,3.20
2017-06-02T08:56:38.908Z,4.10
2017-06-02T08:59:06.104Z,3.68
2017-06-02T09:01:38.312Z,4.40
2017-06-02T09:04:05.605Z,4.16
2017-06-02T09:06:32.846Z,4.04
2017-06-02T09:09:00.163Z,4.32
2017-06-02T09:11:27.498Z,4.04
2017-06-02T09:13:54.816Z,4.30
2017-06-02T09:16:28.206Z,4.66
2017-06-02T09:18:55.557Z,4.70
2017-06-02T09:21:22.833Z,3.82
2017-06-02T09:23:50.059Z,5.24
2017-06-02T09:26:17.330Z,4.90
2017-06-02T09:28:44.660Z,4.04
2017-06-02T09:31:17.109Z,4.88
2017-06-02T09:33:44.455Z,4.10
2017-06-02T09:36:11.912Z,4.06
2017-06-02T09:38:39.101Z,4.10
2017-06-02T09:41:06.389Z,4.22
2017-06-02T09:43:33.710Z,4.22
2017-06-02T09:46:02.421Z,3.94
2017-06-02T09:48:29.729Z,4.10
2017-06-02T09:50:56.940Z,4.30
2017-06-02T09:53:24.486Z,4.42
2017-06-02T09:55:51.844Z,4.62
2017-06-02T09:58:19.141Z,4.42
2017-06-02T10:00:49.760Z,4.70
2017-06-02T10:03:17.060Z,4.42
2017-06-02T10:05:44.285Z,3.98
2017-06-02T10:08:11.577Z,4.36
2017-06-02T10:10:38.856Z,4.24
2017-06-02T10:13:06.157Z,4.88
2017-06-02T10:15:33.456Z,5.46
2017-06-02T10:18:04.213Z,4.60
2017-06-02T10:20:31.500Z,4.40
2017-06-02T10:22:58.820Z,6.02
2017-06-02T10:25:26.116Z,5.68
2017-06-02T10:27:53.428Z,5.34
2017-06-02T10:30:20.774Z,5.04
2017-06-02T10:32:48.111Z,5.72
2017-06-02T10:35:15.418Z,4.84
2017-06-02T10:37:50.872Z,5.00
2017-06-02T10:40:18.224Z,5.30
2017-06-02T10:42:45.496Z,5.40
2017-06-02T10:45:12.757Z,5.72
2017-06-02T10:47:40.096Z,4.58
2017-06-02T10:50:11.228Z,4.62
2017-06-02T10:52:38.545Z,4.34
2017-06-02T10:55:05.798Z,4.76
2017-06-02T10:57:33.167Z,5.08
2017-06-02T11:00:00.476Z,5.68
2017-06-02T11:02:27.752Z,5.80
2017-06-02T11:04:55.076Z,5.30
2017-06-02T11:07:25.621Z,5.52
2017-06-02T11:09:52.923Z,5.46
2017-06-02T11:14:53.853Z,5.36
2017-06-02T11:17:28.978Z,5.56
2017-06-02T11:19:57.657Z,5.78
2017-06-02T11:22:24.980Z,5.40
2017-06-02T11:24:52.208Z,4.76
2017-06-02T11:27:19.497Z,5.92
2017-06-02T11:29:46.809Z,5.50
2017-06-02T11:32:14.140Z,5.06
2017-06-02T11:34:41.413Z,5.02
2017-06-02T11:37:15.165Z,5.14
2017-06-02T11:39:42.464Z,5.34
2017-06-02T11:42:09.764Z,5.38
2017-06-02T11:44:37.077Z,6.16
2017-06-02T11:47:04.370Z,5.18
2017-06-02T11:49:35.845Z,5.64
2017-06-02T11:52:03.193Z,6.28
2017-06-02T11:54:30.544Z,5.68
2017-06-02T11:56:57.856Z,5.58
2017-06-02T11:59:25.302Z,5.60
2017-06-02T12:01:52.551Z,4.96
2017-06-02T12:04:19.841Z,6.22
2017-06-02T12:06:48.487Z,5.32
2017-06-02T12:09:15.824Z,6.58
2017-06-02T12:11:43.292Z,5.74
2017-06-02T12:14:10.593Z,5.38
2017-06-02T12:16:37.831Z,5.14
2017-06-02T12:19:10.498Z,5.46
2017-06-02T12:21:37.027Z,5.98
2017-06-02T12:24:04.369Z,5.82
2017-06-02T12:26:31.660Z,5.16
2017-06-02T12:28:58.248Z,5.62
2017-06-02T12:31:25.563Z,5.84
2017-06-02T12:33:54.212Z,5.82
2017-06-02T12:36:21.574Z,5.32
2017-06-02T12:38:48.925Z,5.90
2017-06-02T12:41:16.221Z,6.08
2017-06-02T12:43:43.615Z,5.62
2017-06-02T12:46:10.932Z,5.22
2017-06-02T12:48:42.040Z,5.98
2017-06-02T12:51:09.362Z,5.54
2017-06-02T12:53:36.696Z,5.54
2017-06-02T12:56:03.995Z,6.18
2017-06-02T12:58:31.272Z,5.36
2017-06-02T13:00:58.604Z,5.80
2017-06-02T13:03:25.955Z,5.58
2017-06-02T13:05:53.236Z,5.56
2017-06-02T13:08:20.516Z,4.72
2017-06-02T13:10:54.716Z,5.74
2017-06-02T13:13:22.041Z,4.92
2017-06-02T13:15:52.413Z,5.82
2017-06-02T13:18:28.014Z,5.32
2017-06-02T13:20:58.572Z,5.82
2017-06-02T13:23:25.859Z,5.94
2017-06-02T13:25:53.213Z,5.80
2017-06-02T13:28:20.520Z,6.42
2017-06-02T13:30:47.736Z,5.38
2017-06-02T13:33:15.052Z,6.00
2017-06-02T13:35:42.440Z,6.40
2017-06-02T13:38:09.724Z,6.54
2017-06-02T13:40:37.016Z,5.78
2017-06-02T13:43:07.172Z,5.26
2017-06-02T13:45:34.479Z,5.70
2017-06-02T13:48:01.752Z,6.12
2017-06-02T13:50:29.064Z,6.06
2017-06-02T13:52:56.369Z,5.64
2017-06-02T13:55:23.729Z,5.82
2017-06-02T13:57:51.104Z,6.06
2017-06-02T14:00:18.436Z,5.46
2017-06-02T14:02:45.756Z,6.06
2017-06-02T14:05:13.090Z,6.28
2017-06-02T14:07:40.362Z,6.28
2017-06-02T14:10:07.649Z,5.90
2017-06-02T14:12:34.975Z,6.50
2017-06-02T14:15:02.288Z,5.68
2017-06-02T14:17:29.628Z,6.02
2017-06-02T14:19:56.979Z,6.54
2017-06-02T14:22:24.298Z,5.64
2017-06-02T14:24:51.601Z,5.72
2017-06-02T14:27:19.024Z,7.58
2017-06-02T14:29:45.648Z,6.16
2017-06-02T14:32:13.053Z,6.80
2017-06-02T14:34:40.304Z,5.68
2017-06-02T14:37:07.477Z,6.48
2017-06-02T14:39:34.836Z,5.94
2017-06-02T14:42:02.041Z,6.44
2017-06-02T14:44:29.376Z,6.00
2017-06-02T14:46:56.732Z,6.20
2017-06-02T14:49:24.062Z,6.52
2017-06-02T14:51:51.381Z,6.88
2017-06-02T14:54:18.818Z,5.94
2017-06-02T14:56:46.120Z,7.04
2017-06-02T14:59:13.766Z,6.64
2017-06-02T15:01:41.384Z,6.18
2017-06-02T15:04:08.792Z,6.38
2017-06-02T15:06:36.156Z,6.84
2017-06-02T15:09:03.877Z,7.50
2017-06-02T15:11:31.211Z,7.24
2017-06-02T15:13:58.478Z,6.90
2017-06-02T15:16:25.780Z,6.58
2017-06-02T15:18:53.014Z,6.60
2017-06-02T15:21:20.764Z,5.72
2017-06-02T15:23:47.959Z,6.10
2017-06-02T15:26:15.296Z,5.60
2017-06-02T15:28:41.933Z,6.66
2017-06-02T15:31:09.314Z,7.18
2017-06-02T15:33:36.518Z,6.28
2017-06-02T15:36:03.848Z,6.60
2017-06-02T15:38:31.189Z,5.82
2017-06-02T15:40:58.528Z,5.86
2017-06-02T15:43:25.744Z,6.22
2017-06-02T15:45:53.239Z,5.90
2017-06-02T15:48:20.609Z,6.98
2017-06-02T15:50:47.916Z,6.80
2017-06-02T15:53:15.239Z,6.10
2017-06-02T15:55:42.633Z,7.06
2017-06-02T15:58:09.969Z,7.40
2017-06-02T16:00:36.545Z,8.14
2017-06-02T16:03:03.912Z,6.10
2017-06-02T16:05:31.133Z,6.58
2017-06-02T16:07:58.472Z,6.46
2017-06-02T16:10:25.798Z,6.14
2017-06-02T16:12:53.316Z,6.40
2017-06-02T16:15:20.736Z,6.64
2017-06-02T16:17:48.084Z,6.52
2017-06-02T16:20:15.375Z,6.68
2017-06-02T16:22:42.700Z,6.02
2017-06-02T16:25:10.036Z,5.82
2017-06-02T16:27:37.209Z,7.48
2017-06-02T16:30:04.840Z,6.60
2017-06-02T16:32:32.149Z,6.70
2017-06-02T16:34:59.401Z,8.02
2017-06-02T16:37:26.737Z,6.72
2017-06-02T16:39:54.076Z,7.26
2017-06-02T16:42:21.412Z,6.84
2017-06-02T16:44:48.738Z,7.38
2017-06-02T16:47:16.124Z,6.30
2017-06-02T16:49:43.691Z,6.54
2017-06-02T16:52:11.377Z,7.70
2017-06-02T16:54:38.678Z,6.62
2017-06-02T16:57:06.008Z,6.64
2017-06-02T16:59:33.324Z,6.76
2017-06-02T17:02:00.656Z,7.94
2017-06-02T17:04:27.980Z,7.96
2017-06-02T17:06:56.975Z,6.14
2017-06-02T17:09:26.300Z,6.58
2017-06-02T17:11:53.684Z,7.56
2017-06-02T17:14:20.984Z,7.26
2017-06-02T17:16:48.329Z,6.08
2017-06-02T17:19:15.552Z,7.56
2017-06-02T17:21:43.008Z,7.58
2017-06-02T17:24:10.330Z,10.70
2017-06-02T17:26:40.064Z,11.20
2017-06-02T17:29:07.416Z,20.28
2017-06-02T17:31:34.728Z,27.86
2017-06-02T17:34:01.969Z,12.64
2017-06-02T17:36:29.265Z,10.06
2017-06-02T17:38:56.584Z,7.86
2017-06-02T17:41:25.624Z,7.42
2017-06-02T17:43:52.889Z,7.46
2017-06-02T17:46:20.218Z,19.10
2017-06-02T17:48:47.568Z,12.52
2017-06-02T17:51:14.880Z,21.12
2017-06-02T17:56:14.716Z,10.80
2017-06-02T17:58:42.234Z,10.30
2017-06-02T18:01:09.584Z,9.98
2017-06-02T18:03:36.903Z,7.28
2017-06-02T18:06:08.248Z,6.88
2017-06-02T18:08:35.597Z,8.02
2017-06-02T18:11:02.913Z,6.24
2017-06-02T18:13:30.259Z,6.18
2017-06-02T18:15:57.517Z,6.00
2017-06-02T18:18:24.847Z,6.24
2017-06-02T18:20:52.213Z,6.54
2017-06-02T18:23:19.557Z,6.60
2017-06-02T18:25:47.159Z,6.50
2017-06-02T18:28:14.495Z,5.70
2017-06-02T18:30:41.953Z,6.36
2017-06-02T18:33:09.299Z,7.32
2017-06-02T18:35:36.620Z,5.98
2017-06-02T18:38:10.900Z,5.60
2017-06-02T18:40:38.204Z,5.70
2017-06-02T18:43:05.541Z,5.76
2017-06-02T18:45:32.864Z,6.04
2017-06-02T18:48:00.188Z,6.32
2017-06-02T18:50:27.489Z,6.96
2017-06-02T18:52:58.732Z,6.86
2017-06-02T18:55:25.932Z,7.04
2017-06-02T18:57:53.320Z,7.02
2017-06-02T19:00:20.592Z,7.48
2017-06-02T19:02:47.920Z,9.78
2017-06-02T19:05:15.248Z,9.30
2017-06-02T19:07:42.628Z,9.66
2017-06-02T19:10:10.030Z,8.98
2017-06-02T19:12:37.600Z,10.34
2017-06-02T19:15:05.357Z,10.08
2017-06-02T19:17:32.655Z,10.14
2017-06-02T19:19:59.960Z,10.32
2017-06-02T19:22:27.260Z,11.32
2017-06-02T19:24:54.600Z,11.94
2017-06-02T19:27:21.972Z,11.06
2017-06-02T19:29:49.616Z,11.60
2017-06-02T19:32:16.867Z,12.18
2017-06-02T19:34:44.263Z,12.32
2017-06-02T19:37:11.776Z,13.28
2017-06-02T19:39:39.076Z,12.50
2017-06-02T19:42:06.451Z,13.30
2017-06-02T19:44:33.784Z,13.88
2017-06-02T19:47:01.225Z,14.80
2017-06-02T19:49:28.577Z,15.32
2017-06-02T19:51:55.892Z,15.68
2017-06-02T19:54:23.296Z,15.74
2017-06-02T19:56:50.647Z,15.98
2017-06-02T19:59:17.854Z,16.62
2017-06-02T20:01:45.225Z,18.44
2017-06-02T20:04:12.468Z,18.68
2017-06-02T20:06:39.648Z,19.16
2017-06-02T20:09:07.104Z,22.50
2017-06-02T20:11:34.406Z,22.24
2017-06-02T20:14:01.769Z,22.36
2017-06-02T20:16:29.052Z,21.52
2017-06-02T20:18:56.368Z,20.84
2017-06-02T20:21:23.836Z,20.98
2017-06-02T20:23:51.180Z,20.86
2017-06-02T20:26:18.475Z,21.26
2017-06-02T20:28:45.062Z,22.18
2017-06-02T20:31:12.694Z,19.78
2017-06-02T20:33:39.944Z,22.30
2017-06-02T20:36:07.259Z,22.84
2017-06-02T20:38:34.620Z,21.78
2017-06-02T20:41:01.909Z,22.46
2017-06-02T20:43:29.228Z,23.38
2017-06-02T20:45:56.989Z,22.82
2017-06-02T20:48:24.299Z,21.66
2017-06-02T20:50:51.520Z,21.90
2017-06-02T20:53:18.818Z,23.50
2017-06-02T20:55:46.110Z,29.52
2017-06-02T20:58:13.314Z,22.76
2017-06-02T21:00:47.620Z,24.18
2017-06-02T21:03:14.142Z,24.16
2017-06-02T21:05:41.467Z,24.84
2017-06-02T21:08:08.824Z,23.38
2017-06-02T21:10:36.123Z,25.36
2017-06-02T21:13:03.473Z,24.86
2017-06-02T21:15:30.714Z,23.92
2017-06-02T21:17:58.032Z,22.40
2017-06-02T21:20:25.489Z,22.46
2017-06-02T21:22:52.836Z,23.42
2017-06-02T21:25:20.173Z,23.40
2017-06-02T21:27:47.425Z,24.88
2017-06-02T21:30:15.012Z,24.06
2017-06-02T21:32:42.555Z,24.42
2017-06-02T21:35:09.867Z,23.20
2017-06-02T21:37:37.204Z,25.00
2017-06-02T21:40:04.624Z,22.24
2017-06-02T21:42:32.236Z,23.34
2017-06-02T21:44:59.561Z,24.68
2017-06-02T21:47:26.885Z,23.80
2017-06-02T21:49:54.342Z,22.82
2017-06-02T21:52:21.654Z,23.86
2017-06-02T21:54:48.964Z,23.98
2017-06-02T21:57:16.277Z,22.64
2017-06-02T21:59:43.548Z,23.58
2017-06-02T22:02:10.869Z,23.82
2017-06-02T22:04:38.076Z,23.58
2017-06-02T22:07:05.388Z,23.54
2017-06-02T22:09:32.611Z,23.26
2017-06-02T22:11:59.925Z,23.56
2017-06-02T22:14:27.333Z,22.36
2017-06-02T22:16:54.624Z,22.42
2017-06-02T22:19:21.925Z,22.08
2017-06-02T22:21:49.241Z,22.86
2017-06-02T22:24:16.636Z,22.46
2017-06-02T22:26:43.942Z,22.62
2017-06-02T22:29:11.496Z,25.70
2017-06-02T22:31:38.793Z,22.44
2017-06-02T22:34:06.100Z,22.22
2017-06-02T22:36:33.348Z,24.10
2017-06-02T22:39:00.641Z,22.22
2017-06-02T22:41:27.948Z,22.94
2017-06-02T22:43:55.259Z,22.50
2017-06-02T22:46:22.415Z,21.44
2017-06-02T22:48:49.471Z,21.08
2017-06-02T22:51:16.560Z,21.50
2017-06-02T22:53:43.616Z,21.22
2017-06-02T22:56:10.675Z,20.70
2017-06-02T22:58:37.736Z,20.86
2017-06-02T23:01:04.810Z,21.20
2017-06-02T23:03:31.876Z,21.04
2017-06-02T23:05:58.977Z,21.36
2017-06-02T23:08:26.084Z,21.82
2017-06-02T23:10:53.151Z,21.60
2017-06-02T23:13:20.252Z,20.72
2017-06-02T23:15:47.338Z,21.80
2017-06-02T23:18:21.380Z,22.44
2017-06-02T23:20:48.470Z,23.76
2017-06-02T23:23:15.543Z,26.02
2017-06-02T23:25:42.713Z,24.94
2017-06-02T23:28:10.485Z,25.58
2017-06-02T23:30:37.628Z,25.22
2017-06-02T23:33:04.687Z,25.96
2017-06-02T23:35:31.751Z,24.22
2017-06-02T23:37:58.816Z,24.68
2017-06-02T23:40:25.924Z,24.58
2017-06-02T23:42:53.004Z,25.30
2017-06-02T23:45:20.091Z,25.14
2017-06-02T23:47:47.152Z,26.42
2017-06-02T23:50:14.217Z,26.50
2017-06-02T23:52:41.332Z,25.88
2017-06-02T23:55:08.411Z,25.66
2017-06-02T23:57:35.560Z,26.00
